sensor_id;sensor_type;location;lat;lon;timestamp;P1;durP1;ratioP1;P2;durP2;ratioP2
41627;SDS011;27321;50.816;6.054;2023-06-24T00:02:09;5.38;;;4.13;;
41627;SDS011;27321;50.816;6.054;2023-06-24T00:05:10;8.15;;;4.00;;
41627;SDS011;27321;50.816;6.054;2023-06-24T00:08:11;4.38;;;3.92;;
41627;SDS011;27321;50.816;6.054;2023-06-24T00:11:12;5.00;;;3.85;;
41627;SDS011;27321;50.816;6.054;2023-06-24T00:14:14;4.70;;;4.15;;
41627;SDS011;27321;50.816;6.054;2023-06-24T00:17:15;4.82;;;4.25;;
41627;SDS011;27321;50.816;6.054;2023-06-24T00:20:18;4.53;;;4.15;;
41627;SDS011;27321;50.816;6.054;2023-06-24T00:26:26;5.38;;;4.18;;
41627;SDS011;27321;50.816;6.054;2023-06-24T00:29:27;4.20;;;3.70;;
41627;SDS011;27321;50.816;6.054;2023-06-24T00:32:28;4.25;;;3.72;;
41627;SDS011;27321;50.816;6.054;2023-06-24T00:35:29;4.78;;;4.20;;
41627;SDS011;27321;50.816;6.054;2023-06-24T00:38:30;5.45;;;4.80;;
41627;SDS011;27321;50.816;6.054;2023-06-24T00:41:33;5.25;;;4.07;;
41627;SDS011;27321;50.816;6.054;2023-06-24T00:44:35;4.63;;;4.22;;
41627;SDS011;27321;50.816;6.054;2023-06-24T00:47:37;4.55;;;4.15;;
41627;SDS011;27321;50.816;6.054;2023-06-24T00:50:40;5.07;;;4.57;;
41627;SDS011;27321;50.816;6.054;2023-06-24T00:53:45;4.30;;;3.90;;
41627;SDS011;27321;50.816;6.054;2023-06-24T00:56:48;4.47;;;4.07;;
41627;SDS011;27321;50.816;6.054;2023-06-24T00:59:49;3.97;;;3.65;;
41627;SDS011;27321;50.816;6.054;2023-06-24T01:02:53;4.90;;;4.45;;
41627;SDS011;27321;50.816;6.054;2023-06-24T01:05:54;4.22;;;3.83;;
41627;SDS011;27321;50.816;6.054;2023-06-24T01:11:57;4.70;;;3.72;;
41627;SDS011;27321;50.816;6.054;2023-06-24T01:14:58;4.28;;;3.88;;
41627;SDS011;27321;50.816;6.054;2023-06-24T01:18:43;4.22;;;3.83;;
41627;SDS011;27321;50.816;6.054;2023-06-24T01:21:51;4.82;;;4.32;;
41627;SDS011;27321;50.816;6.054;2023-06-24T01:32:38;4.10;;;3.78;;
41627;SDS011;27321;50.816;6.054;2023-06-24T01:35:50;4.65;;;3.95;;
41627;SDS011;27321;50.816;6.054;2023-06-24T01:38:55;5.63;;;4.65;;
41627;SDS011;27321;50.816;6.054;2023-06-24T01:42:10;5.20;;;4.60;;
41627;SDS011;27321;50.816;6.054;2023-06-24T01:45:16;5.85;;;4.18;;
41627;SDS011;27321;50.816;6.054;2023-06-24T01:48:32;4.88;;;4.30;;
41627;SDS011;27321;50.816;6.054;2023-06-24T01:51:36;5.18;;;4.18;;
41627;SDS011;27321;50.816;6.054;2023-06-24T01:54:41;4.78;;;3.72;;
41627;SDS011;27321;50.816;6.054;2023-06-24T01:57:42;5.22;;;4.40;;
41627;SDS011;27321;50.816;6.054;2023-06-24T02:00:46;4.93;;;4.43;;
41627;SDS011;27321;50.816;6.054;2023-06-24T02:03:49;5.65;;;4.10;;
41627;SDS011;27321;50.816;6.054;2023-06-24T02:06:50;5.68;;;4.50;;
41627;SDS011;27321;50.816;6.054;2023-06-24T02:09:54;5.35;;;4.47;;
41627;SDS011;27321;50.816;6.054;2023-06-24T02:12:55;9.38;;;4.30;;
41627;SDS011;27321;50.816;6.054;2023-06-24T02:15:57;4.88;;;4.38;;
41627;SDS011;27321;50.816;6.054;2023-06-24T02:19:01;5.00;;;4.43;;
41627;SDS011;27321;50.816;6.054;2023-06-24T02:22:05;5.65;;;5.05;;
41627;SDS011;27321;50.816;6.054;2023-06-24T02:25:09;5.95;;;5.00;;
41627;SDS011;27321;50.816;6.054;2023-06-24T02:28:11;6.72;;;5.20;;
41627;SDS011;27321;50.816;6.054;2023-06-24T02:31:12;6.65;;;5.40;;
41627;SDS011;27321;50.816;6.054;2023-06-24T02:34:15;5.90;;;5.30;;
41627;SDS011;27321;50.816;6.054;2023-06-24T02:37:16;5.68;;;5.10;;
41627;SDS011;27321;50.816;6.054;2023-06-24T02:40:17;5.60;;;5.00;;
41627;SDS011;27321;50.816;6.054;2023-06-24T02:43:19;7.22;;;4.78;;
41627;SDS011;27321;50.816;6.054;2023-06-24T02:46:20;7.65;;;5.35;;
41627;SDS011;27321;50.816;6.054;2023-06-24T02:49:22;6.43;;;5.82;;
41627;SDS011;27321;50.816;6.054;2023-06-24T02:55:24;7.75;;;5.53;;
41627;SDS011;27321;50.816;6.054;2023-06-24T02:58:32;6.57;;;5.57;;
41627;SDS011;27321;50.816;6.054;2023-06-24T03:01:39;6.38;;;5.50;;
41627;SDS011;27321;50.816;6.054;2023-06-24T03:04:45;7.65;;;6.75;;
41627;SDS011;27321;50.816;6.054;2023-06-24T03:07:48;7.55;;;6.55;;
41627;SDS011;27321;50.816;6.054;2023-06-24T03:10:50;7.28;;;6.57;;
41627;SDS011;27321;50.816;6.054;2023-06-24T03:13:57;7.93;;;6.65;;
41627;SDS011;27321;50.816;6.054;2023-06-24T03:17:08;7.75;;;6.93;;
41627;SDS011;27321;50.816;6.054;2023-06-24T03:20:10;9.35;;;5.90;;
41627;SDS011;27321;50.816;6.054;2023-06-24T03:23:11;7.15;;;6.45;;
41627;SDS011;27321;50.816;6.054;2023-06-24T03:26:13;7.50;;;6.70;;
41627;SDS011;27321;50.816;6.054;2023-06-24T03:29:16;8.20;;;7.28;;
41627;SDS011;27321;50.816;6.054;2023-06-24T03:32:26;8.32;;;6.75;;
41627;SDS011;27321;50.816;6.054;2023-06-24T03:35:27;8.98;;;7.20;;
41627;SDS011;27321;50.816;6.054;2023-06-24T03:38:33;7.97;;;7.18;;
41627;SDS011;27321;50.816;6.054;2023-06-24T03:41:34;7.43;;;6.47;;
41627;SDS011;27321;50.816;6.054;2023-06-24T03:44:35;9.15;;;6.68;;
41627;SDS011;27321;50.816;6.054;2023-06-24T03:47:36;7.22;;;6.50;;
41627;SDS011;27321;50.816;6.054;2023-06-24T03:50:39;6.85;;;6.20;;
41627;SDS011;27321;50.816;6.054;2023-06-24T03:53:40;8.10;;;6.78;;
41627;SDS011;27321;50.816;6.054;2023-06-24T03:56:41;6.50;;;5.90;;
41627;SDS011;27321;50.816;6.054;2023-06-24T03:59:42;8.13;;;6.70;;
41627;SDS011;27321;50.816;6.054;2023-06-24T04:02:43;6.53;;;5.93;;
41627;SDS011;27321;50.816;6.054;2023-06-24T04:05:45;7.55;;;6.35;;
41627;SDS011;27321;50.816;6.054;2023-06-24T04:08:46;7.72;;;6.53;;
41627;SDS011;27321;50.816;6.054;2023-06-24T04:11:49;9.60;;;7.72;;
41627;SDS011;27321;50.816;6.054;2023-06-24T04:14:50;7.78;;;6.93;;
41627;SDS011;27321;50.816;6.054;2023-06-24T04:17:51;8.70;;;7.72;;
41627;SDS011;27321;50.816;6.054;2023-06-24T04:20:52;10.77;;;8.20;;
41627;SDS011;27321;50.816;6.054;2023-06-24T04:23:53;9.85;;;8.63;;
41627;SDS011;27321;50.816;6.054;2023-06-24T04:26:54;10.00;;;8.65;;
41627;SDS011;27321;50.816;6.054;2023-06-24T04:29:55;11.13;;;9.05;;
41627;SDS011;27321;50.816;6.054;2023-06-24T04:32:57;10.77;;;8.07;;
41627;SDS011;27321;50.816;6.054;2023-06-24T04:35:58;10.15;;;8.95;;
41627;SDS011;27321;50.816;6.054;2023-06-24T04:39:00;9.82;;;8.48;;
41627;SDS011;27321;50.816;6.054;2023-06-24T04:42:01;11.15;;;9.07;;
41627;SDS011;27321;50.816;6.054;2023-06-24T04:45:02;11.82;;;8.75;;
41627;SDS011;27321;50.816;6.054;2023-06-24T04:48:05;10.20;;;8.57;;
41627;SDS011;27321;50.816;6.054;2023-06-24T04:51:06;9.63;;;8.63;;
41627;SDS011;27321;50.816;6.054;2023-06-24T04:54:07;10.75;;;8.63;;
41627;SDS011;27321;50.816;6.054;2023-06-24T04:57:09;8.88;;;7.95;;
41627;SDS011;27321;50.816;6.054;2023-06-24T05:00:23;11.32;;;9.23;;
41627;SDS011;27321;50.816;6.054;2023-06-24T05:03:24;8.48;;;7.53;;
41627;SDS011;27321;50.816;6.054;2023-06-24T05:06:25;10.40;;;8.65;;
41627;SDS011;27321;50.816;6.054;2023-06-24T05:12:28;8.30;;;7.37;;
41627;SDS011;27321;50.816;6.054;2023-06-24T05:15:29;9.50;;;8.05;;
41627;SDS011;27321;50.816;6.054;2023-06-24T05:18:30;8.77;;;7.72;;
41627;SDS011;27321;50.816;6.054;2023-06-24T05:21:31;9.32;;;7.82;;
41627;SDS011;27321;50.816;6.054;2023-06-24T05:24:32;10.23;;;8.07;;
41627;SDS011;27321;50.816;6.054;2023-06-24T05:27:33;7.55;;;6.85;;
41627;SDS011;27321;50.816;6.054;2023-06-24T05:30:34;9.23;;;7.63;;
41627;SDS011;27321;50.816;6.054;2023-06-24T05:33:34;7.68;;;6.88;;
41627;SDS011;27321;50.816;6.054;2023-06-24T05:36:35;9.52;;;7.30;;
41627;SDS011;27321;50.816;6.054;2023-06-24T05:39:36;8.65;;;7.72;;
41627;SDS011;27321;50.816;6.054;2023-06-24T05:42:37;9.20;;;7.70;;
41627;SDS011;27321;50.816;6.054;2023-06-24T05:48:39;9.73;;;8.10;;
41627;SDS011;27321;50.816;6.054;2023-06-24T05:51:42;9.57;;;8.13;;
41627;SDS011;27321;50.816;6.054;2023-06-24T05:54:43;8.95;;;8.02;;
41627;SDS011;27321;50.816;6.054;2023-06-24T05:57:44;9.45;;;8.02;;
41627;SDS011;27321;50.816;6.054;2023-06-24T06:00:45;8.23;;;7.40;;
41627;SDS011;27321;50.816;6.054;2023-06-24T06:03:46;9.88;;;8.48;;
41627;SDS011;27321;50.816;6.054;2023-06-24T06:06:47;10.45;;;8.60;;
41627;SDS011;27321;50.816;6.054;2023-06-24T06:09:48;10.35;;;9.25;;
41627;SDS011;27321;50.816;6.054;2023-06-24T06:12:49;11.48;;;10.27;;
41627;SDS011;27321;50.816;6.054;2023-06-24T06:15:50;12.52;;;8.80;;
41627;SDS011;27321;50.816;6.054;2023-06-24T06:18:51;12.82;;;9.18;;
41627;SDS011;27321;50.816;6.054;2023-06-24T06:21:52;11.05;;;8.32;;
41627;SDS011;27321;50.816;6.054;2023-06-24T06:24:53;8.90;;;8.00;;
41627;SDS011;27321;50.816;6.054;2023-06-24T06:27:54;11.15;;;8.13;;
41627;SDS011;27321;50.816;6.054;2023-06-24T06:30:54;9.75;;;8.45;;
41627;SDS011;27321;50.816;6.054;2023-06-24T06:33:57;8.57;;;7.65;;
41627;SDS011;27321;50.816;6.054;2023-06-24T06:36:58;10.32;;;7.90;;
41627;SDS011;27321;50.816;6.054;2023-06-24T06:39:59;10.68;;;8.07;;
41627;SDS011;27321;50.816;6.054;2023-06-24T06:43:00;11.80;;;8.68;;
41627;SDS011;27321;50.816;6.054;2023-06-24T06:46:01;9.13;;;8.15;;
41627;SDS011;27321;50.816;6.054;2023-06-24T06:49:02;10.02;;;8.93;;
41627;SDS011;27321;50.816;6.054;2023-06-24T06:52:03;9.98;;;8.50;;
41627;SDS011;27321;50.816;6.054;2023-06-24T06:55:05;8.20;;;7.35;;
41627;SDS011;27321;50.816;6.054;2023-06-24T07:01:07;11.17;;;8.73;;
41627;SDS011;27321;50.816;6.054;2023-06-24T07:04:08;9.30;;;7.63;;
41627;SDS011;27321;50.816;6.054;2023-06-24T07:07:09;9.10;;;8.07;;
41627;SDS011;27321;50.816;6.054;2023-06-24T07:10:12;8.32;;;6.93;;
41627;SDS011;27321;50.816;6.054;2023-06-24T07:13:13;9.45;;;8.15;;
41627;SDS011;27321;50.816;6.054;2023-06-24T07:16:14;10.60;;;8.63;;
41627;SDS011;27321;50.816;6.054;2023-06-24T07:19:16;9.55;;;8.50;;
41627;SDS011;27321;50.816;6.054;2023-06-24T07:22:17;9.65;;;8.13;;
41627;SDS011;27321;50.816;6.054;2023-06-24T07:25:18;10.73;;;8.75;;
41627;SDS011;27321;50.816;6.054;2023-06-24T07:28:19;10.52;;;9.50;;
41627;SDS011;27321;50.816;6.054;2023-06-24T07:31:20;11.60;;;10.15;;
41627;SDS011;27321;50.816;6.054;2023-06-24T07:34:21;14.88;;;11.82;;
41627;SDS011;27321;50.816;6.054;2023-06-24T07:37:22;11.75;;;9.60;;
41627;SDS011;27321;50.816;6.054;2023-06-24T07:40:23;9.50;;;8.55;;
41627;SDS011;27321;50.816;6.054;2023-06-24T07:43:24;11.65;;;9.75;;
41627;SDS011;27321;50.816;6.054;2023-06-24T07:46:25;12.02;;;9.45;;
41627;SDS011;27321;50.816;6.054;2023-06-24T07:49:28;16.17;;;13.10;;
41627;SDS011;27321;50.816;6.054;2023-06-24T07:52:29;12.48;;;10.98;;
41627;SDS011;27321;50.816;6.054;2023-06-24T07:55:30;12.95;;;9.57;;
41627;SDS011;27321;50.816;6.054;2023-06-24T07:58:33;12.10;;;8.65;;
41627;SDS011;27321;50.816;6.054;2023-06-24T08:01:35;9.73;;;8.52;;
41627;SDS011;27321;50.816;6.054;2023-06-24T08:04:36;13.80;;;11.10;;
41627;SDS011;27321;50.816;6.054;2023-06-24T08:07:37;11.80;;;10.05;;
41627;SDS011;27321;50.816;6.054;2023-06-24T08:10:38;10.55;;;9.05;;
41627;SDS011;27321;50.816;6.054;2023-06-24T08:13:39;14.10;;;10.35;;
41627;SDS011;27321;50.816;6.054;2023-06-24T08:16:40;12.07;;;9.57;;
41627;SDS011;27321;50.816;6.054;2023-06-24T08:19:41;13.15;;;10.00;;
41627;SDS011;27321;50.816;6.054;2023-06-24T08:22:42;12.40;;;8.85;;
41627;SDS011;27321;50.816;6.054;2023-06-24T08:25:43;9.23;;;8.27;;
41627;SDS011;27321;50.816;6.054;2023-06-24T08:28:45;9.35;;;8.02;;
41627;SDS011;27321;50.816;6.054;2023-06-24T08:31:47;9.50;;;8.45;;
41627;SDS011;27321;50.816;6.054;2023-06-24T08:34:48;8.23;;;7.20;;
41627;SDS011;27321;50.816;6.054;2023-06-24T08:37:49;9.77;;;7.18;;
41627;SDS011;27321;50.816;6.054;2023-06-24T08:40:50;7.13;;;5.75;;
41627;SDS011;27321;50.816;6.054;2023-06-24T08:43:54;8.20;;;6.45;;
41627;SDS011;27321;50.816;6.054;2023-06-24T08:46:55;8.27;;;6.55;;
41627;SDS011;27321;50.816;6.054;2023-06-24T08:50:01;11.88;;;7.57;;
41627;SDS011;27321;50.816;6.054;2023-06-24T08:53:07;8.68;;;6.70;;
41627;SDS011;27321;50.816;6.054;2023-06-24T08:56:09;7.55;;;5.70;;
41627;SDS011;27321;50.816;6.054;2023-06-24T09:02:11;7.45;;;5.50;;
41627;SDS011;27321;50.816;6.054;2023-06-24T09:05:13;6.28;;;5.28;;
41627;SDS011;27321;50.816;6.054;2023-06-24T09:08:14;7.03;;;5.25;;
41627;SDS011;27321;50.816;6.054;2023-06-24T09:11:22;4.97;;;4.47;;
41627;SDS011;27321;50.816;6.054;2023-06-24T09:14:32;5.25;;;4.55;;
41627;SDS011;27321;50.816;6.054;2023-06-24T09:17:33;5.45;;;4.03;;
41627;SDS011;27321;50.816;6.054;2023-06-24T09:20:45;4.60;;;4.13;;
41627;SDS011;27321;50.816;6.054;2023-06-24T09:23:50;4.88;;;3.88;;
41627;SDS011;27321;50.816;6.054;2023-06-24T09:26:56;4.47;;;3.60;;
41627;SDS011;27321;50.816;6.054;2023-06-24T09:30:02;3.85;;;3.47;;
41627;SDS011;27321;50.816;6.054;2023-06-24T09:33:22;4.18;;;3.50;;
41627;SDS011;27321;50.816;6.054;2023-06-24T09:36:23;5.10;;;3.85;;
41627;SDS011;27321;50.816;6.054;2023-06-24T09:39:25;4.45;;;3.58;;
41627;SDS011;27321;50.816;6.054;2023-06-24T09:42:30;3.03;;;2.80;;
41627;SDS011;27321;50.816;6.054;2023-06-24T09:45:32;4.95;;;3.42;;
41627;SDS011;27321;50.816;6.054;2023-06-24T09:48:33;4.35;;;3.25;;
41627;SDS011;27321;50.816;6.054;2023-06-24T09:51:36;7.30;;;3.97;;
41627;SDS011;27321;50.816;6.054;2023-06-24T09:54:39;3.75;;;2.83;;
41627;SDS011;27321;50.816;6.054;2023-06-24T10:00:45;4.90;;;2.55;;
41627;SDS011;27321;50.816;6.054;2023-06-24T10:03:48;4.88;;;3.38;;
41627;SDS011;27321;50.816;6.054;2023-06-24T10:06:49;3.65;;;3.20;;
41627;SDS011;27321;50.816;6.054;2023-06-24T10:09:50;3.83;;;3.25;;
41627;SDS011;27321;50.816;6.054;2023-06-24T10:12:51;3.33;;;2.90;;
41627;SDS011;27321;50.816;6.054;2023-06-24T10:15:52;2.53;;;2.33;;
41627;SDS011;27321;50.816;6.054;2023-06-24T10:18:59;3.53;;;2.65;;
41627;SDS011;27321;50.816;6.054;2023-06-24T10:22:02;3.33;;;2.60;;
41627;SDS011;27321;50.816;6.054;2023-06-24T10:28:07;2.20;;;2.00;;
41627;SDS011;27321;50.816;6.054;2023-06-24T10:31:08;2.90;;;2.58;;
41627;SDS011;27321;50.816;6.054;2023-06-24T10:34:27;3.17;;;2.63;;
41627;SDS011;27321;50.816;6.054;2023-06-24T10:37:39;3.47;;;3.17;;
41627;SDS011;27321;50.816;6.054;2023-06-24T10:40:54;3.95;;;3.20;;
41627;SDS011;27321;50.816;6.054;2023-06-24T10:43:56;3.83;;;2.63;;
41627;SDS011;27321;50.816;6.054;2023-06-24T10:46:57;3.17;;;2.40;;
41627;SDS011;27321;50.816;6.054;2023-06-24T10:49:58;2.53;;;2.33;;
41627;SDS011;27321;50.816;6.054;2023-06-24T10:56:01;2.13;;;1.88;;
41627;SDS011;27321;50.816;6.054;2023-06-24T10:59:02;3.08;;;2.50;;
41627;SDS011;27321;50.816;6.054;2023-06-24T11:02:04;3.35;;;2.50;;
41627;SDS011;27321;50.816;6.054;2023-06-24T11:05:05;3.00;;;2.70;;
41627;SDS011;27321;50.816;6.054;2023-06-24T11:08:07;3.05;;;2.50;;
41627;SDS011;27321;50.816;6.054;2023-06-24T11:11:08;2.88;;;2.53;;
41627;SDS011;27321;50.816;6.054;2023-06-24T11:14:21;2.20;;;1.83;;
41627;SDS011;27321;50.816;6.054;2023-06-24T11:20:23;1.90;;;1.80;;
41627;SDS011;27321;50.816;6.054;2023-06-24T11:23:24;2.10;;;1.90;;
41627;SDS011;27321;50.816;6.054;2023-06-24T11:26:26;2.50;;;2.30;;
41627;SDS011;27321;50.816;6.054;2023-06-24T11:29:31;3.65;;;2.17;;
41627;SDS011;27321;50.816;6.054;2023-06-24T11:32:34;2.20;;;1.77;;
41627;SDS011;27321;50.816;6.054;2023-06-24T11:35:36;1.98;;;1.60;;
41627;SDS011;27321;50.816;6.054;2023-06-24T11:38:38;3.03;;;1.70;;
41627;SDS011;27321;50.816;6.054;2023-06-24T11:41:38;1.95;;;1.63;;
41627;SDS011;27321;50.816;6.054;2023-06-24T11:44:42;2.58;;;2.33;;
41627;SDS011;27321;50.816;6.054;2023-06-24T11:47:43;3.17;;;1.80;;
41627;SDS011;27321;50.816;6.054;2023-06-24T11:50:44;2.72;;;2.53;;
41627;SDS011;27321;50.816;6.054;2023-06-24T11:53:58;2.33;;;2.10;;
41627;SDS011;27321;50.816;6.054;2023-06-24T11:57:00;2.72;;;2.30;;
41627;SDS011;27321;50.816;6.054;2023-06-24T12:00:01;3.13;;;2.20;;
41627;SDS011;27321;50.816;6.054;2023-06-24T12:03:09;2.28;;;2.03;;
41627;SDS011;27321;50.816;6.054;2023-06-24T12:06:12;2.38;;;1.92;;
41627;SDS011;27321;50.816;6.054;2023-06-24T12:09:13;4.25;;;1.90;;
41627;SDS011;27321;50.816;6.054;2023-06-24T12:12:13;3.92;;;2.05;;
41627;SDS011;27321;50.816;6.054;2023-06-24T12:15:15;2.47;;;2.20;;
41627;SDS011;27321;50.816;6.054;2023-06-24T12:18:16;2.50;;;2.22;;
41627;SDS011;27321;50.816;6.054;2023-06-24T12:21:17;2.70;;;2.03;;
41627;SDS011;27321;50.816;6.054;2023-06-24T12:24:17;4.25;;;2.05;;
41627;SDS011;27321;50.816;6.054;2023-06-24T12:27:18;1.70;;;1.60;;
41627;SDS011;27321;50.816;6.054;2023-06-24T12:30:19;4.85;;;2.08;;
41627;SDS011;27321;50.816;6.054;2023-06-24T12:33:21;2.28;;;2.00;;
41627;SDS011;27321;50.816;6.054;2023-06-24T12:36:23;1.77;;;1.67;;
41627;SDS011;27321;50.816;6.054;2023-06-24T12:39:24;1.60;;;1.50;;
41627;SDS011;27321;50.816;6.054;2023-06-24T12:42:25;2.25;;;2.05;;
41627;SDS011;27321;50.816;6.054;2023-06-24T12:45:26;2.83;;;1.92;;
41627;SDS011;27321;50.816;6.054;2023-06-24T12:48:27;1.83;;;1.73;;
41627;SDS011;27321;50.816;6.054;2023-06-24T12:51:28;3.20;;;2.10;;
41627;SDS011;27321;50.816;6.054;2023-06-24T12:54:29;2.42;;;1.75;;
41627;SDS011;27321;50.816;6.054;2023-06-24T12:57:30;2.00;;;1.80;;
41627;SDS011;27321;50.816;6.054;2023-06-24T13:00:31;1.92;;;1.80;;
41627;SDS011;27321;50.816;6.054;2023-06-24T13:06:33;2.75;;;1.88;;
41627;SDS011;27321;50.816;6.054;2023-06-24T13:09:34;2.45;;;1.95;;
41627;SDS011;27321;50.816;6.054;2023-06-24T13:12:35;1.70;;;1.60;;
41627;SDS011;27321;50.816;6.054;2023-06-24T13:15:37;2.85;;;2.22;;
41627;SDS011;27321;50.816;6.054;2023-06-24T13:18:37;3.53;;;2.22;;
41627;SDS011;27321;50.816;6.054;2023-06-24T13:21:38;3.95;;;2.35;;
41627;SDS011;27321;50.816;6.054;2023-06-24T13:24:40;1.92;;;1.80;;
41627;SDS011;27321;50.816;6.054;2023-06-24T13:30:43;2.03;;;1.73;;
41627;SDS011;27321;50.816;6.054;2023-06-24T13:33:44;1.73;;;1.63;;
41627;SDS011;27321;50.816;6.054;2023-06-24T13:36:45;2.17;;;1.92;;
41627;SDS011;27321;50.816;6.054;2023-06-24T13:39:47;3.08;;;2.40;;
41627;SDS011;27321;50.816;6.054;2023-06-24T13:42:48;2.13;;;1.90;;
41627;SDS011;27321;50.816;6.054;2023-06-24T13:48:51;2.03;;;1.83;;
41627;SDS011;27321;50.816;6.054;2023-06-24T13:51:52;3.08;;;2.15;;
41627;SDS011;27321;50.816;6.054;2023-06-24T13:57:54;2.92;;;2.00;;
41627;SDS011;27321;50.816;6.054;2023-06-24T14:03:56;1.70;;;1.60;;
41627;SDS011;27321;50.816;6.054;2023-06-24T14:06:57;4.18;;;2.00;;
41627;SDS011;27321;50.816;6.054;2023-06-24T14:12:59;4.13;;;1.98;;
41627;SDS011;27321;50.816;6.054;2023-06-24T14:16:00;1.85;;;1.75;;
41627;SDS011;27321;50.816;6.054;2023-06-24T14:22:01;2.22;;;1.98;;
41627;SDS011;27321;50.816;6.054;2023-06-24T14:25:03;2.80;;;2.30;;
41627;SDS011;27321;50.816;6.054;2023-06-24T14:28:05;2.67;;;2.20;;
41627;SDS011;27321;50.816;6.054;2023-06-24T14:31:06;2.50;;;1.90;;
41627;SDS011;27321;50.816;6.054;2023-06-24T14:34:07;2.13;;;2.00;;
41627;SDS011;27321;50.816;6.054;2023-06-24T14:40:09;2.20;;;2.00;;
41627;SDS011;27321;50.816;6.054;2023-06-24T14:46:11;2.13;;;1.80;;
41627;SDS011;27321;50.816;6.054;2023-06-24T14:52:12;1.98;;;1.70;;
41627;SDS011;27321;50.816;6.054;2023-06-24T14:55:13;2.05;;;1.83;;
41627;SDS011;27321;50.816;6.054;2023-06-24T15:01:15;2.53;;;2.25;;
41627;SDS011;27321;50.816;6.054;2023-06-24T15:04:16;1.85;;;1.75;;
41627;SDS011;27321;50.816;6.054;2023-06-24T15:10:18;3.50;;;2.08;;
41627;SDS011;27321;50.816;6.054;2023-06-24T15:16:20;2.80;;;1.77;;
41627;SDS011;27321;50.816;6.054;2023-06-24T15:22:21;1.90;;;1.70;;
41627;SDS011;27321;50.816;6.054;2023-06-24T15:25:23;3.80;;;1.90;;
41627;SDS011;27321;50.816;6.054;2023-06-24T15:31:26;1.60;;;1.50;;
41627;SDS011;27321;50.816;6.054;2023-06-24T15:34:27;1.73;;;1.60;;
41627;SDS011;27321;50.816;6.054;2023-06-24T15:37:28;2.13;;;1.92;;
41627;SDS011;27321;50.816;6.054;2023-06-24T15:40:30;2.50;;;1.83;;
41627;SDS011;27321;50.816;6.054;2023-06-24T15:43:31;2.13;;;2.00;;
41627;SDS011;27321;50.816;6.054;2023-06-24T15:46:31;1.95;;;1.85;;
41627;SDS011;27321;50.816;6.054;2023-06-24T15:49:32;2.03;;;1.88;;
41627;SDS011;27321;50.816;6.054;2023-06-24T15:52:33;1.67;;;1.58;;
41627;SDS011;27321;50.816;6.054;2023-06-24T15:55:34;1.92;;;1.70;;
41627;SDS011;27321;50.816;6.054;2023-06-24T15:58:35;1.77;;;1.67;;
41627;SDS011;27321;50.816;6.054;2023-06-24T16:01:36;1.85;;;1.75;;
41627;SDS011;27321;50.816;6.054;2023-06-24T16:04:37;2.85;;;2.03;;
41627;SDS011;27321;50.816;6.054;2023-06-24T16:07:38;2.05;;;1.90;;
41627;SDS011;27321;50.816;6.054;2023-06-24T16:10:39;2.00;;;1.90;;
41627;SDS011;27321;50.816;6.054;2023-06-24T16:13:40;1.67;;;1.58;;
41627;SDS011;27321;50.816;6.054;2023-06-24T16:16:41;1.92;;;1.60;;
41627;SDS011;27321;50.816;6.054;2023-06-24T16:19:42;2.05;;;1.85;;
41627;SDS011;27321;50.816;6.054;2023-06-24T16:22:43;1.50;;;1.40;;
41627;SDS011;27321;50.816;6.054;2023-06-24T16:25:44;2.72;;;1.80;;
41627;SDS011;27321;50.816;6.054;2023-06-24T16:28:45;2.00;;;1.90;;
41627;SDS011;27321;50.816;6.054;2023-06-24T16:31:46;2.22;;;1.83;;
41627;SDS011;27321;50.816;6.054;2023-06-24T16:34:46;1.67;;;1.58;;
41627;SDS011;27321;50.816;6.054;2023-06-24T16:37:47;1.88;;;1.77;;
41627;SDS011;27321;50.816;6.054;2023-06-24T16:40:48;1.80;;;1.70;;
41627;SDS011;27321;50.816;6.054;2023-06-24T16:43:49;1.83;;;1.73;;
41627;SDS011;27321;50.816;6.054;2023-06-24T16:46:50;1.90;;;1.80;;
41627;SDS011;27321;50.816;6.054;2023-06-24T16:49:51;2.40;;;2.20;;
41627;SDS011;27321;50.816;6.054;2023-06-24T16:52:52;1.95;;;1.85;;
41627;SDS011;27321;50.816;6.054;2023-06-24T16:55:53;1.85;;;1.75;;
41627;SDS011;27321;50.816;6.054;2023-06-24T16:58:54;1.80;;;1.70;;
41627;SDS011;27321;50.816;6.054;2023-06-24T17:01:55;1.70;;;1.60;;
41627;SDS011;27321;50.816;6.054;2023-06-24T17:04:56;1.80;;;1.70;;
41627;SDS011;27321;50.816;6.054;2023-06-24T17:07:57;3.70;;;1.70;;
41627;SDS011;27321;50.816;6.054;2023-06-24T17:10:58;2.03;;;1.92;;
41627;SDS011;27321;50.816;6.054;2023-06-24T17:13:59;2.17;;;1.73;;
41627;SDS011;27321;50.816;6.054;2023-06-24T17:17:00;1.95;;;1.70;;
41627;SDS011;27321;50.816;6.054;2023-06-24T17:20:01;1.85;;;1.75;;
41627;SDS011;27321;50.816;6.054;2023-06-24T17:23:03;2.33;;;1.73;;
41627;SDS011;27321;50.816;6.054;2023-06-24T17:26:03;2.00;;;1.70;;
41627;SDS011;27321;50.816;6.054;2023-06-24T17:29:04;2.20;;;2.00;;
41627;SDS011;27321;50.816;6.054;2023-06-24T17:32:06;2.15;;;1.95;;
41627;SDS011;27321;50.816;6.054;2023-06-24T17:35:07;2.08;;;1.88;;
41627;SDS011;27321;50.816;6.054;2023-06-24T17:38:09;1.63;;;1.38;;
41627;SDS011;27321;50.816;6.054;2023-06-24T17:41:10;1.85;;;1.75;;
41627;SDS011;27321;50.816;6.054;2023-06-24T17:44:11;2.60;;;2.40;;
41627;SDS011;27321;50.816;6.054;2023-06-24T17:47:11;2.30;;;2.10;;
41627;SDS011;27321;50.816;6.054;2023-06-24T17:50:12;2.15;;;1.75;;
41627;SDS011;27321;50.816;6.054;2023-06-24T17:53:13;2.38;;;2.20;;
41627;SDS011;27321;50.816;6.054;2023-06-24T17:56:14;2.42;;;2.13;;
41627;SDS011;27321;50.816;6.054;2023-06-24T17:59:16;2.30;;;2.05;;
41627;SDS011;27321;50.816;6.054;2023-06-24T18:02:17;2.33;;;2.13;;
41627;SDS011;27321;50.816;6.054;2023-06-24T18:05:18;2.50;;;2.30;;
41627;SDS011;27321;50.816;6.054;2023-06-24T18:08:19;3.03;;;2.15;;
41627;SDS011;27321;50.816;6.054;2023-06-24T18:11:20;2.28;;;2.08;;
41627;SDS011;27321;50.816;6.054;2023-06-24T18:14:21;2.45;;;2.25;;
41627;SDS011;27321;50.816;6.054;2023-06-24T18:17:22;2.97;;;2.20;;
41627;SDS011;27321;50.816;6.054;2023-06-24T18:23:24;3.25;;;2.30;;
41627;SDS011;27321;50.816;6.054;2023-06-24T18:32:27;2.65;;;2.42;;
41627;SDS011;27321;50.816;6.054;2023-06-24T18:38:29;2.65;;;2.17;;
41627;SDS011;27321;50.816;6.054;2023-06-24T18:44:31;2.53;;;2.33;;
41627;SDS011;27321;50.816;6.054;2023-06-24T18:50:33;3.65;;;2.40;;
41627;SDS011;27321;50.816;6.054;2023-06-24T18:56:34;2.72;;;2.28;;
41627;SDS011;27321;50.816;6.054;2023-06-24T19:02:36;2.67;;;2.45;;
41627;SDS011;27321;50.816;6.054;2023-06-24T19:08:38;2.55;;;2.30;;
41627;SDS011;27321;50.816;6.054;2023-06-24T19:14:40;2.95;;;2.33;;
41627;SDS011;27321;50.816;6.054;2023-06-24T19:17:41;2.30;;;2.10;;
41627;SDS011;27321;50.816;6.054;2023-06-24T19:20:42;2.05;;;1.95;;
41627;SDS011;27321;50.816;6.054;2023-06-24T19:23:44;2.17;;;1.98;;
41627;SDS011;27321;50.816;6.054;2023-06-24T19:29:46;2.35;;;2.15;;
41627;SDS011;27321;50.816;6.054;2023-06-24T19:33:05;3.42;;;2.35;;
41627;SDS011;27321;50.816;6.054;2023-06-24T19:36:06;2.50;;;2.30;;
41627;SDS011;27321;50.816;6.054;2023-06-24T19:39:07;2.35;;;2.15;;
41627;SDS011;27321;50.816;6.054;2023-06-24T19:42:08;2.47;;;2.28;;
41627;SDS011;27321;50.816;6.054;2023-06-24T19:45:09;2.70;;;2.28;;
41627;SDS011;27321;50.816;6.054;2023-06-24T19:48:10;2.33;;;2.13;;
41627;SDS011;27321;50.816;6.054;2023-06-24T19:51:12;2.55;;;2.30;;
41627;SDS011;27321;50.816;6.054;2023-06-24T19:54:12;2.35;;;2.15;;
41627;SDS011;27321;50.816;6.054;2023-06-24T19:57:14;3.78;;;2.30;;
41627;SDS011;27321;50.816;6.054;2023-06-24T20:00:16;2.53;;;2.33;;
41627;SDS011;27321;50.816;6.054;2023-06-24T20:03:17;2.03;;;1.92;;
41627;SDS011;27321;50.816;6.054;2023-06-24T20:06:18;2.33;;;2.13;;
41627;SDS011;27321;50.816;6.054;2023-06-24T20:09:19;2.45;;;2.25;;
41627;SDS011;27321;50.816;6.054;2023-06-24T20:12:20;2.40;;;2.20;;
41627;SDS011;27321;50.816;6.054;2023-06-24T20:15:21;2.78;;;2.35;;